• Join FlightAware (Why Join?)
  • Login
  • US Flag 
07:49AM EST


 

Airport Tracker/Info


-or-


 

Live Flight TrackerFlight Track Log ✈ TAM3053 ✈ 15-Jul-2013 ✈ SBSP / CGH - SBUL / UDI

Flight Track Log - Related Links

Times and Time Zones

All times are in EDT time to prevent confusion due to time zone crossing. See the TAM3053 flight status page for this flight to view local times or setup timezone preferences in your user account.

Time Position Orientation Groundspeed Altitude Reporting Facility
EDT Latitude Longitude Course Direction KTS MPH feet Rate Location/Type
09:31AM -23.6130 -46.6660 327° Northwest 157 181 3,200  Level FlightAware
09:31AM -23.5900 -46.6770 336° Northwest 203 234 3,700 1,380 Climbing FlightAware
09:32AM -23.5680 -46.6520 46° Northeast 234 269 4,600 960 Climbing FlightAware
09:32AM -23.5660 -46.6270 85° East 234 269 4,600 1,620 Level FlightAware
09:33AM -23.5890 -46.6100 146° Southeast 221 254 5,800 1,500 Climbing FlightAware
09:33AM -23.6090 -46.5850 131° Southeast 228 262 5,800  Level FlightAware
09:33AM -23.6110 -46.5730 100° East 239 275 5,800 600 Level FlightAware
09:34AM -23.6050 -46.5370 80° East 282 325 6,200 1,260 Climbing FlightAware
09:34AM -23.5950 -46.5010 73° East 307 353 6,900 2,160 Climbing FlightAware
09:34AM -23.5880 -46.4760 73° East 308 354 7,700 2,640 Climbing FlightAware
09:35AM -23.5780 -46.4340 75° East 315 362 8,900 2,280 Climbing FlightAware
09:36AM -23.5620 -46.3600 77° East 336 387 10,600 1,500 Climbing FlightAware
09:36AM -23.5460 -46.2920 76° East 383 441 11,100 1,260 Climbing FlightAware
09:37AM -23.5230 -46.2110 73° East 402 463 12,400 2,100 Climbing FlightAware
09:37AM -23.5050 -46.1890 48° Northeast 394 453 13,100 2,760 Climbing FlightAware
09:38AM -23.4830 -46.1730 34° Northeast 385 443 13,700 2,520 Climbing FlightAware
09:38AM -23.4630 -46.1670 15° North 377 434 14,200 2,100 Climbing FlightAware
09:38AM -23.4160 -46.1710 356° North 390 449 15,200 1,740 Climbing FlightAware
09:39AM -23.3810 -46.1960 327° Northwest 362 417 15,800 1,440 Climbing FlightAware
09:39AM -23.3220 -46.2480 321° Northwest 379 436 16,900 1,920 Climbing FlightAware
09:40AM -23.2580 -46.3040 321° Northwest 379 436 18,700 2,040 Climbing FlightAware
09:41AM -23.2030 -46.3520 321° Northwest 386 444 19,800 1,740 Climbing FlightAware
09:42AM -23.1430 -46.4040 321° Northwest 388 447 21,100 1,680 Climbing FlightAware
09:42AM -23.0860 -46.4530 322° Northwest 393 452 22,100 1,320 Climbing FlightAware
09:43AM -23.0190 -46.5090 322° Northwest 407 468 23,000 1,320 Climbing FlightAware
09:44AM -22.9520 -46.5480 332° Northwest 416 479 24,000 1,320 Climbing FlightAware
09:44AM -22.8790 -46.5780 339° North 425 489 24,800 1,500 Climbing FlightAware
09:47AM -22.6446 -46.6774 339° North  Level Estimated
09:47AM -22.6110 -46.6270 339° North 392 451 29,000  Level FlightAware
09:47AM -22.5480 -46.6380 351° North 395 455 29,000  Level FlightAware
09:48AM -22.4460 -46.6540 352° North 399 459 29,000  Level FlightAware
09:49AM -22.3730 -46.6650 352° North 400 460 29,000  Level FlightAware
09:50AM -22.2870 -46.6790 351° North 399 459 29,000  Level FlightAware
09:50AM -22.2140 -46.6900 352° North 398 458 29,000  Level FlightAware
09:51AM -22.1410 -46.7010 352° North 399 459 29,000  Level FlightAware
09:52AM -22.0590 -46.7140 352° North 400 460 29,000  Level FlightAware
09:52AM -21.9750 -46.7260 352° North 402 463 29,000  Level FlightAware
09:53AM -21.9080 -46.7360 352° North 402 463 29,000  Level FlightAware
09:54AM -21.8190 -46.7490 352° North 402 463 29,000  Level FlightAware
09:54AM -21.7560 -46.7590 352° North 401 461 29,000  Level FlightAware
09:55AM -21.6720 -46.7710 352° North 401 461 29,000  Level FlightAware
09:56AM -21.6010 -46.7820 352° North 401 461 29,000  Level FlightAware
09:56AM -21.5420 -46.7900 353° North 402 463 29,000  Level FlightAware
09:57AM -21.4780 -46.8000 352° North 402 463 29,000  Level FlightAware
09:58AM -21.3930 -46.8120 353° North 402 463 29,000  Level FlightAware
09:58AM -21.3190 -46.8230 352° North 402 463 29,000  Level FlightAware
09:59AM -21.2530 -46.8330 352° North 402 463 29,000  Level FlightAware
10:02AM -21.0497 -46.9544 331° Northwest  Level Estimated
10:02AM -20.9790 -46.8730 331° Northwest 402 463 29,000  Level FlightAware
10:02AM -20.8750 -46.8990 347° North 389 448 29,000  Level FlightAware
10:03AM -20.8110 -46.9420 328° Northwest 389 448 29,000  Level FlightAware
10:04AM -20.7550 -46.9790 328° Northwest 390 449 29,000  Level FlightAware
10:05AM -20.6780 -47.0300 328° Northwest 390 449 29,000  Level FlightAware
10:05AM -20.6170 -47.0700 328° Northwest 391 450 29,000  Level FlightAware
10:06AM -20.5480 -47.1150 329° Northwest 391 450 29,000  Level FlightAware
10:06AM -20.5050 -47.1430 329° Northwest 390 449 29,000  Level FlightAware
10:07AM -20.4290 -47.1930 328° Northwest 387 445 29,000  Level FlightAware
10:08AM -20.3700 -47.2320 328° Northwest 383 441 29,000  Level FlightAware
10:09AM -20.3060 -47.2750 328° Northwest 379 436 29,000 -120 Level FlightAware
10:09AM -20.2510 -47.3100 329° Northwest 379 436 28,900  Descending FlightAware
10:10AM -20.1980 -47.3450 328° Northwest 378 435 29,000 60 Climbing FlightAware
10:10AM -20.1370 -47.3850 328° Northwest 377 434 29,000 -120 Level FlightAware
10:11AM -20.0690 -47.4290 329° Northwest 378 435 28,900 -960 Descending FlightAware
10:12AM -20.0010 -47.4740 328° Northwest 368 423 27,600 -1,980 Descending FlightAware
10:13AM -19.9410 -47.5130 329° Northwest 364 419 26,100 -2,220 Descending FlightAware
10:13AM -19.8800 -47.5530 328° Northwest 364 419 24,500 -2,340 Descending FlightAware
10:14AM -19.8290 -47.5860 329° Northwest 364 419 23,100 -1,920 Descending FlightAware
10:14AM -19.7940 -47.6080 329° Northwest 351 404 22,600 -1,500 Descending FlightAware
10:16AM -19.6600 -47.6960 327° Northwest 328 377 19,800 -1,440 Descending FlightAware
10:17AM -19.6330 -47.7178 327° Northwest  Level Estimated
10:17AM -19.5880 -47.7420 329° Northwest 309 356 18,900  Level FlightAware
10:18AM -19.5340 -47.7780 328° Northwest 333 383 16,800 -2,520 Descending FlightAware
10:18AM -19.4810 -47.8120 329° Northwest 330 380 15,500 -2,160 Descending FlightAware
10:19AM -19.4340 -47.8420 329° Northwest 334 384 14,100 -2,100 Descending FlightAware
10:20AM -19.3880 -47.8730 328° Northwest 334 384 13,000 -1,740 Descending FlightAware
10:20AM -19.3340 -47.9300 315° West 318 366 11,700 -1,620 Descending FlightAware
10:21AM -19.2850 -47.9820 315° West 310 357 10,400 -1,500 Descending FlightAware
10:22AM -19.2560 -48.0130 315° West 299 344 9,800 -1,380 Descending FlightAware
10:22AM -19.2290 -48.0420 315° West 292 336 9,100 -1,560 Descending FlightAware
10:23AM -19.2040 -48.0690 314° West 291 335 8,400 -1,740 Descending FlightAware
10:23AM -19.1920 -48.0820 314° West 293 337 8,000 -1,920 Descending FlightAware
10:23AM -19.1700 -48.1060 314° West 289 333 7,300 -1,620 Descending FlightAware
10:24AM -19.1430 -48.1340 316° Northwest 285 328 6,600 -1,440 Descending FlightAware
10:24AM -19.1240 -48.1530 317° Northwest 284 327 6,100 -1,680 Descending FlightAware
10:24AM -19.0970 -48.1810 316° Northwest 282 325 5,300 -1,260 Descending FlightAware
10:25AM -19.0730 -48.2050 317° Northwest 271 312 5,000 -360 Descending FlightAware
10:25AM -19.0510 -48.2280 315° West 271 312 5,000 -120 Level FlightAware
10:26AM -19.0220 -48.2570 317° Northwest 219 252 4,900 -180 Descending FlightAware
10:29AM -18.8828 -48.2256 12° North  Level Estimated
10:30AM -18.8828 -48.2256 223° Southwest  Level Estimated
10:31AM -18.8828 -48.2256 223° Southwest  Level Estimated
10:32AM -18.8828 -48.2256 223° Southwest  Level Estimated
10:33AM -18.8828 -48.2256 223° Southwest  Level Estimated
10:34AM -18.8828 -48.2256 223° Southwest  Level Estimated
10:35AM -18.8828 -48.2256 223° Southwest  Level Estimated
10:36AM -18.8828 -48.2256 223° Southwest  Level Estimated
10:37AM -18.8828 -48.2256 223° Southwest  Level Estimated
10:38AM -18.8828 -48.2256 223° Southwest  Level Estimated
10:39AM -18.8828 -48.2256 223° Southwest  Level Estimated
10:40AM -18.8828 -48.2256 223° Southwest  Level Estimated
10:41AM -18.8828 -48.2256 223° Southwest  Level Estimated